Погода Гоясна неделю

Гояс, Бразилия

26 мая-01 июня
  • 26мая
    Сегодня
    +15°
    +31°
    Ясно и безоблачно
    ВремяПогодаТемператураВлажностьДавлениеВетер, м/сВероятность осадков
    00:00Ясно и безоблачно+20°C69 %701 мм1.8 м/с5 %
    03:00Ясно и безоблачно+18°C70 %700 мм1.7 м/с5 %
    06:00Ясно и безоблачно+17°C75 %701 мм1.9 м/с5 %
    09:00Ясно и безоблачно+23°C58 %703 мм1.5 м/с5 %
    12:00Ясно и безоблачно+29°C34 %703 мм3.4 м/с5 %
    15:00Ясно и безоблачно+31°C28 %702 мм2.4 м/с5 %
    18:00Ясно и безоблачно+27°C46 %701 мм2.1 м/с5 %
    21:00Ясно и безоблачно+22°C53 %701 мм1.5 м/с5 %
  • 27мая
    Понедельник
    +17°
    +31°
    Ясно и безоблачно
    ВремяПогодаТемператураВлажностьДавлениеВетер, м/сВероятность осадков
    00:00Ясно и безоблачно+18°C62 %701 мм1.9 м/с5 %
    03:00Облачно с прояснениями+16°C65 %700 мм1.7 м/с5 %
    06:00Ясно и безоблачно+16°C74 %700 мм1.7 м/с5 %
    09:00Ясно и безоблачно+25°C48 %703 мм1.2 м/с5 %
    12:00Ясно и безоблачно+30°C35 %703 мм3.1 м/с5 %
    15:00Ясно и безоблачно+31°C35 %702 мм1.7 м/с5 %
    18:00Ясно и безоблачно+26°C52 %701 мм1.9 м/с5 %
    21:00Ясно и безоблачно+26°C41 %702 мм0.9 м/с5 %
  • 28мая
    Вторник
    +18°
    +31°
    Небольшая облачность
    ВремяПогодаТемператураВлажностьДавлениеВетер, м/сВероятность осадков
    00:00Небольшая облачность+20°C66 %702 мм1.7 м/с5 %
    03:00Небольшая облачность+20°C70 %701 мм1.3 м/с5 %
    06:00Ясно и безоблачно+18°C76 %701 мм1.5 м/с5 %
    09:00Ясно и безоблачно+23°C58 %704 мм1.4 м/с5 %
    12:00Ясно и безоблачно+29°C41 %703 мм0.6 м/с5 %
    15:00Небольшая облачность+30°C37 %702 мм0.9 м/с5 %
    18:00Ясно и безоблачно+27°C48 %701 мм2.0 м/с5 %
    21:00Ясно и безоблачно+23°C61 %702 мм2.3 м/с5 %
  • 29мая
    Среда
    +19°
    +32°
    Ясно и безоблачно
    ВремяПогодаТемператураВлажностьДавлениеВетер, м/сВероятность осадков
    00:00Ясно и безоблачно+21°C68 %702 мм3.3 м/с5 %
    03:00Практически безоблачно+20°C75 %702 мм3.3 м/с5 %
    06:00Ясно и безоблачно+19°C81 %702 мм3.3 м/с5 %
    09:00Ясно и безоблачно+24°C66 %704 мм3.3 м/с5 %
    12:00Ясно и безоблачно+30°C42 %703 мм1.6 м/с5 %
    15:00Ясно и безоблачно+32°C34 %702 мм0.0 м/с5 %
    18:00Ясно и безоблачно+29°C44 %701 мм1.2 м/с5 %
    21:00Практически безоблачно+24°C56 %702 мм1.8 м/с5 %
  • 30мая
    Четверг
    +18°
    +32°
    Практически безоблачно
    ВремяПогодаТемператураВлажностьДавлениеВетер, м/сВероятность осадков
    00:00Ясно и безоблачно+21°C62 %702 мм2.6 м/с5 %
    03:00Ясно и безоблачно+20°C67 %701 мм2.8 м/с5 %
    06:00Ясно и безоблачно+20°C75 %701 мм2.6 м/с5 %
    09:00Ясно и безоблачно+25°C59 %703 мм2.7 м/с5 %
    12:00Ясно и безоблачно+30°C38 %703 мм2.0 м/с5 %
    15:00Практически безоблачно+32°C31 %701 мм1.7 м/с5 %
    18:00Ясно и безоблачно+27°C36 %701 мм2.1 м/с5 %
    21:00Ясно и безоблачно+23°C45 %702 мм1.9 м/с5 %
Мы используем cookies
Соглашаюсь